Time;durP1;ratioP1;P1;durP2;ratioP2;P2;SDS_P1;SDS_P2;PMS_P1;PMS_P2;Temp;Humidity;BMP_temperature;BMP_pressure;BME280_temperature;BME280_humidity;BME280_pressure;Samples;Min_cycle;Max_cycle;Signal;HPM_P1;HPM_P2
2023/12/19 00:00:47;;;;;;;9.97;7.10;;;3.60;99.90;;;;;;5030950;28;20216;-83
2023/12/19 00:03:12;;;;;;;11.40;7.33;;;3.60;99.90;;;;;;5032568;28;20186;-83
2023/12/19 00:05:41;;;;;;;9.83;7.07;;;3.60;99.90;;;;;;5031338;28;20186;-82
2023/12/19 00:08:08;;;;;;;11.77;6.80;;;3.60;99.90;;;;;;5031282;28;20692;-83
2023/12/19 00:10:34;;;;;;;11.20;7.47;;;3.60;99.90;;;;;;5030446;28;20178;-83
2023/12/19 00:13:00;;;;;;;10.20;7.13;;;3.60;99.90;;;;;;5032173;28;20688;-83
2023/12/19 00:15:26;;;;;;;10.93;7.63;;;3.60;99.90;;;;;;5032802;28;20178;-83
2023/12/19 00:17:51;;;;;;;10.60;6.83;;;3.60;99.90;;;;;;5035377;28;20197;-83
2023/12/19 00:20:17;;;;;;;11.87;6.90;;;3.60;99.90;;;;;;5035420;28;20309;-85
2023/12/19 00:22:43;;;;;;;11.97;6.87;;;3.60;99.90;;;;;;5034279;28;20205;-83
2023/12/19 00:25:08;;;;;;;9.27;6.97;;;3.60;99.90;;;;;;5035450;28;20254;-83
2023/12/19 00:27:34;;;;;;;10.43;7.47;;;3.60;99.90;;;;;;5035317;28;20216;-83
2023/12/19 00:29:59;;;;;;;9.77;6.83;;;3.60;99.90;;;;;;5035229;28;20166;-83
2023/12/19 00:32:25;;;;;;;9.60;7.10;;;3.60;99.90;;;;;;5035233;28;20179;-83
2023/12/19 00:34:51;;;;;;;10.93;7.20;;;3.60;99.90;;;;;;5034507;28;20261;-83
2023/12/19 00:37:16;;;;;;;9.43;6.23;;;3.60;99.90;;;;;;5033698;28;20233;-83
2023/12/19 00:39:42;;;;;;;10.33;7.10;;;3.70;99.90;;;;;;5033869;28;20197;-83
2023/12/19 00:42:08;;;;;;;12.07;7.27;;;3.70;99.90;;;;;;5034884;28;20197;-84
2023/12/19 00:44:36;;;;;;;11.73;7.43;;;3.60;99.90;;;;;;5033902;28;20528;-83
2023/12/19 00:47:02;;;;;;;10.03;7.67;;;3.60;99.90;;;;;;5034955;28;20195;-83
2023/12/19 00:49:28;;;;;;;11.60;8.10;;;3.50;99.90;;;;;;5035214;28;20204;-83
2023/12/19 00:51:54;;;;;;;11.10;7.60;;;3.50;99.90;;;;;;5035302;28;20202;-82
2023/12/19 00:54:19;;;;;;;10.43;7.23;;;3.50;99.90;;;;;;5034854;28;20170;-83
2023/12/19 00:56:45;;;;;;;9.67;7.33;;;3.50;99.90;;;;;;5033610;28;20194;-83
2023/12/19 00:59:10;;;;;;;12.70;7.60;;;3.50;99.90;;;;;;5035321;28;20178;-83
2023/12/19 01:01:36;;;;;;;11.23;8.10;;;3.40;99.90;;;;;;5034868;28;20202;-84
2023/12/19 01:04:02;;;;;;;11.40;7.40;;;3.40;99.90;;;;;;5034450;28;20166;-83
2023/12/19 01:06:28;;;;;;;13.13;7.83;;;3.30;99.90;;;;;;5034877;28;20174;-83
2023/12/19 01:08:54;;;;;;;9.43;6.93;;;3.30;99.90;;;;;;5034554;28;20174;-84
2023/12/19 01:11:19;;;;;;;10.17;7.27;;;3.30;99.90;;;;;;5033290;28;20191;-83
2023/12/19 01:13:45;;;;;;;10.80;7.70;;;3.30;99.90;;;;;;5034410;28;20192;-83
2023/12/19 01:16:13;;;;;;;10.17;7.17;;;3.30;99.90;;;;;;5033494;28;20232;-83
2023/12/19 01:18:39;;;;;;;8.70;6.90;;;3.20;99.90;;;;;;5034595;28;20209;-83
2023/12/19 01:21:05;;;;;;;8.90;6.63;;;3.20;99.90;;;;;;5034191;28;20233;-83
2023/12/19 01:23:30;;;;;;;10.90;7.03;;;3.20;99.90;;;;;;5033443;28;20553;-83
2023/12/19 01:25:56;;;;;;;13.37;7.27;;;3.20;99.90;;;;;;5034071;28;20171;-83
2023/12/19 01:28:21;;;;;;;10.33;7.80;;;3.20;99.90;;;;;;5032913;28;20794;-83
2023/12/19 01:30:47;;;;;;;11.77;7.80;;;3.20;99.90;;;;;;5032939;28;20178;-83
2023/12/19 01:33:13;;;;;;;11.13;7.60;;;3.20;99.90;;;;;;5032899;28;20175;-83
2023/12/19 01:35:38;;;;;;;10.93;7.40;;;3.10;99.90;;;;;;5033003;28;20185;-83
2023/12/19 01:38:04;;;;;;;10.97;7.33;;;3.10;99.90;;;;;;5032957;28;20589;-83
2023/12/19 01:40:31;;;;;;;9.00;7.27;;;3.10;99.90;;;;;;5033866;28;20188;-83
2023/12/19 01:43:00;;;;;;;10.90;7.57;;;3.10;99.90;;;;;;5032828;28;20170;-83
2023/12/19 01:45:27;;;;;;;10.90;7.03;;;3.00;99.90;;;;;;5034244;28;20174;-84
2023/12/19 01:47:53;;;;;;;9.97;7.30;;;3.00;99.90;;;;;;5032610;28;20201;-83
2023/12/19 01:50:20;;;;;;;9.87;7.27;;;3.00;99.90;;;;;;5032719;28;20170;-84
2023/12/19 01:52:50;;;;;;;12.47;7.10;;;3.10;99.90;;;;;;5033987;28;20239;-83
2023/12/19 01:55:16;;;;;;;14.87;8.67;;;3.10;99.90;;;;;;5032483;28;20198;-83
2023/12/19 01:57:43;;;;;;;9.23;6.87;;;3.00;99.90;;;;;;5032080;28;20309;-83
2023/12/19 02:00:12;;;;;;;11.10;7.17;;;3.00;99.90;;;;;;5032643;28;20227;-83
2023/12/19 02:02:37;;;;;;;10.43;7.33;;;3.00;99.90;;;;;;5032189;28;20202;-83
2023/12/19 02:05:04;;;;;;;10.07;7.10;;;2.90;99.90;;;;;;5033633;28;20194;-83
2023/12/19 02:07:29;;;;;;;10.93;7.20;;;3.00;99.90;;;;;;5032103;28;20193;-83
2023/12/19 02:09:55;;;;;;;10.20;7.70;;;2.90;99.90;;;;;;5032322;28;20203;-83
2023/12/19 02:12:21;;;;;;;9.87;7.17;;;2.80;99.90;;;;;;5033102;28;20728;-84
2023/12/19 02:14:48;;;;;;;9.63;7.53;;;2.80;99.90;;;;;;5032203;28;20178;-83
2023/12/19 02:17:16;;;;;;;10.70;7.70;;;2.80;99.90;;;;;;5032373;28;20197;-83
2023/12/19 02:19:44;;;;;;;11.07;7.67;;;2.80;99.90;;;;;;5031959;28;20184;-83
2023/12/19 02:22:09;;;;;;;12.87;8.60;;;2.80;99.90;;;;;;5032025;28;20213;-83
2023/12/19 02:24:36;;;;;;;13.40;7.83;;;2.80;99.90;;;;;;5033253;28;20309;-84
2023/12/19 02:27:02;;;;;;;10.47;7.80;;;2.80;99.90;;;;;;5032022;28;20287;-83
2023/12/19 02:29:28;;;;;;;11.87;8.33;;;2.80;99.90;;;;;;5032025;28;20174;-81
2023/12/19 02:31:54;;;;;;;13.33;8.73;;;2.70;99.90;;;;;;5033157;28;20179;-83
2023/12/19 02:34:19;;;;;;;12.00;8.30;;;2.60;99.90;;;;;;5032965;28;20227;-83
2023/12/19 02:36:45;;;;;;;12.23;8.20;;;2.60;99.90;;;;;;5031538;28;20224;-84
2023/12/19 02:39:10;;;;;;;12.43;8.60;;;2.60;99.90;;;;;;5032092;28;20596;-83
2023/12/19 02:41:36;;;;;;;14.33;9.07;;;2.60;99.90;;;;;;5032879;28;20681;-83
2023/12/19 02:44:01;;;;;;;14.13;8.73;;;2.60;99.90;;;;;;5032880;28;20164;-83
2023/12/19 02:46:27;;;;;;;12.47;8.37;;;2.60;99.90;;;;;;5031326;28;20177;-83
2023/12/19 02:48:53;;;;;;;11.77;7.83;;;2.60;99.90;;;;;;5032703;28;20579;-83
2023/12/19 02:51:19;;;;;;;11.83;7.93;;;2.60;99.90;;;;;;5032851;28;20201;-83
2023/12/19 02:53:45;;;;;;;11.43;8.37;;;2.60;99.90;;;;;;5032587;28;20184;-83
2023/12/19 02:56:11;;;;;;;13.90;8.87;;;2.60;99.90;;;;;;5032514;28;20224;-83
2023/12/19 02:58:36;;;;;;;12.87;8.50;;;2.60;99.90;;;;;;5032691;28;20574;-83
2023/12/19 03:01:05;;;;;;;12.47;8.10;;;2.50;99.90;;;;;;5032394;28;20282;-83
2023/12/19 03:03:31;;;;;;;12.53;8.90;;;2.50;99.90;;;;;;5031222;28;20177;-83
2023/12/19 03:05:56;;;;;;;14.53;9.60;;;2.50;99.90;;;;;;5031321;28;20185;-83
2023/12/19 03:08:22;;;;;;;12.70;9.30;;;2.40;99.90;;;;;;5032709;28;20204;-83
2023/12/19 03:10:48;;;;;;;16.30;9.40;;;2.40;99.90;;;;;;5030992;28;20212;-83
2023/12/19 03:13:13;;;;;;;13.17;9.43;;;2.40;99.90;;;;;;5032263;28;20720;-83
2023/12/19 03:15:39;;;;;;;14.20;9.60;;;2.40;99.90;;;;;;5032727;28;20700;-83
2023/12/19 03:18:04;;;;;;;16.50;10.47;;;2.30;99.90;;;;;;5031238;28;20220;-83
2023/12/19 03:20:30;;;;;;;16.07;10.77;;;2.30;99.90;;;;;;5032596;28;20175;-83
2023/12/19 03:22:55;;;;;;;15.67;10.50;;;2.20;99.90;;;;;;5030994;28;20233;-81
2023/12/19 03:25:21;;;;;;;16.60;10.43;;;2.20;99.90;;;;;;5032222;28;20184;-83
2023/12/19 03:27:47;;;;;;;16.27;10.63;;;2.20;99.90;;;;;;5030987;28;20193;-83
2023/12/19 03:30:12;;;;;;;16.10;10.80;;;2.20;99.90;;;;;;5032215;28;20259;-83
2023/12/19 03:32:38;;;;;;;16.23;11.07;;;2.20;99.90;;;;;;5032474;28;20180;-83
2023/12/19 03:35:04;;;;;;;20.90;11.63;;;2.20;99.90;;;;;;5032117;28;20181;-83
2023/12/19 03:37:31;;;;;;;16.60;11.13;;;2.20;99.90;;;;;;5031082;28;20308;-83
2023/12/19 03:39:56;;;;;;;18.70;11.80;;;2.10;99.90;;;;;;5030841;28;20186;-83
2023/12/19 03:42:22;;;;;;;18.07;12.00;;;2.10;99.90;;;;;;5030943;28;20204;-83
2023/12/19 03:44:47;;;;;;;18.47;11.67;;;2.10;99.90;;;;;;5032492;28;20614;-83
2023/12/19 03:47:13;;;;;;;17.23;10.97;;;2.10;99.90;;;;;;5030970;28;20205;-83
2023/12/19 03:49:40;;;;;;;19.67;12.20;;;2.10;99.90;;;;;;5031966;28;20177;-84
2023/12/19 03:52:05;;;;;;;19.57;11.60;;;2.10;99.90;;;;;;5035915;28;20179;-83
2023/12/19 03:54:31;;;;;;;16.23;10.80;;;2.10;99.90;;;;;;5034689;28;20190;-83
2023/12/19 03:56:57;;;;;;;17.70;11.33;;;2.10;99.90;;;;;;5034676;28;20211;-83
2023/12/19 03:59:22;;;;;;;18.07;11.50;;;2.10;99.90;;;;;;5036096;28;20186;-83
2023/12/19 04:01:48;;;;;;;17.60;11.23;;;2.10;99.90;;;;;;5035772;28;20225;-83
2023/12/19 04:04:14;;;;;;;16.80;10.77;;;2.10;99.90;;;;;;5035992;28;20179;-83
2023/12/19 04:06:43;;;;;;;15.93;11.30;;;2.10;99.90;;;;;;5035727;28;20197;-83
2023/12/19 04:09:09;;;;;;;17.17;11.03;;;2.10;99.90;;;;;;5034786;28;20638;-83
2023/12/19 04:11:35;;;;;;;16.90;11.17;;;2.10;99.90;;;;;;5034373;28;20222;-83
2023/12/19 04:14:01;;;;;;;15.83;10.43;;;2.10;99.90;;;;;;5035663;28;20179;-83
2023/12/19 04:16:26;;;;;;;17.13;11.40;;;2.10;99.90;;;;;;5034460;28;20204;-83
2023/12/19 04:18:52;;;;;;;17.47;11.03;;;2.00;99.90;;;;;;5034333;28;20631;-83
2023/12/19 04:21:17;;;;;;;17.40;10.87;;;2.00;99.90;;;;;;5035255;28;20201;-83
2023/12/19 04:23:43;;;;;;;14.70;10.80;;;2.00;99.90;;;;;;5034129;28;20250;-83
2023/12/19 04:26:08;;;;;;;16.03;10.97;;;2.00;99.90;;;;;;5035407;28;20297;-82
2023/12/19 04:28:34;;;;;;;18.87;11.03;;;1.90;99.90;;;;;;5035664;28;20337;-84
2023/12/19 04:30:59;;;;;;;15.97;10.40;;;1.90;99.90;;;;;;5035285;28;20175;-83
2023/12/19 04:33:25;;;;;;;17.10;10.67;;;1.90;99.90;;;;;;5035588;28;20187;-83
2023/12/19 04:35:51;;;;;;;17.83;10.40;;;1.90;99.90;;;;;;5034356;28;20709;-83
2023/12/19 04:38:16;;;;;;;17.97;11.23;;;1.90;99.90;;;;;;5033637;28;20206;-84
2023/12/19 04:40:42;;;;;;;16.87;10.97;;;1.90;99.90;;;;;;5035371;28;20175;-83
2023/12/19 04:43:07;;;;;;;14.87;10.20;;;2.00;99.90;;;;;;5035284;28;20263;-83
2023/12/19 04:45:33;;;;;;;17.37;11.23;;;2.00;99.90;;;;;;5033877;28;20180;-83
2023/12/19 04:47:58;;;;;;;17.27;10.80;;;2.00;99.90;;;;;;5033815;28;20207;-83
2023/12/19 04:50:24;;;;;;;18.43;11.70;;;2.00;99.90;;;;;;5034815;28;20187;-83
2023/12/19 04:52:49;;;;;;;16.73;10.43;;;2.00;99.90;;;;;;5035354;28;20179;-83
2023/12/19 04:55:15;;;;;;;17.37;10.80;;;2.00;99.90;;;;;;5035039;28;20183;-83
2023/12/19 04:57:40;;;;;;;18.63;11.57;;;2.00;99.90;;;;;;5033647;28;20564;-83
2023/12/19 05:00:06;;;;;;;16.97;10.77;;;2.00;99.90;;;;;;5033024;28;20217;-82
2023/12/19 05:02:32;;;;;;;16.67;10.70;;;1.90;99.90;;;;;;5034616;28;20227;-83
2023/12/19 05:04:58;;;;;;;17.70;12.10;;;1.90;99.90;;;;;;5034729;28;20171;-83
2023/12/19 05:07:24;;;;;;;19.13;11.57;;;1.80;99.90;;;;;;5034338;28;20224;-83
2023/12/19 05:09:50;;;;;;;17.37;11.20;;;1.80;99.90;;;;;;5037278;28;20210;-83
2023/12/19 05:12:16;;;;;;;17.03;10.80;;;1.80;99.90;;;;;;5041504;28;20670;-83
2023/12/19 05:14:41;;;;;;;17.97;11.60;;;1.80;99.90;;;;;;5040152;28;20555;-85
2023/12/19 05:17:07;;;;;;;20.00;11.27;;;1.80;99.90;;;;;;5038869;28;20241;-83
2023/12/19 05:19:32;;;;;;;18.20;10.90;;;1.80;99.90;;;;;;5037070;28;20178;-82
2023/12/19 05:21:58;;;;;;;19.10;10.70;;;1.90;99.90;;;;;;5038920;28;20202;-83
2023/12/19 05:24:23;;;;;;;18.93;10.47;;;2.00;99.90;;;;;;5037005;28;20233;-84
2023/12/19 05:26:49;;;;;;;17.80;10.87;;;2.00;99.90;;;;;;5033208;28;20203;-82
2023/12/19 05:29:15;;;;;;;16.50;9.93;;;2.00;99.90;;;;;;5033272;28;20184;-82
2023/12/19 05:31:40;;;;;;;14.17;9.90;;;2.00;99.90;;;;;;5033370;28;20190;-82
2023/12/19 05:34:06;;;;;;;17.90;10.37;;;2.00;99.90;;;;;;5034791;28;20187;-82
2023/12/19 05:36:34;;;;;;;16.30;10.60;;;2.00;99.90;;;;;;5034073;28;20204;-82
2023/12/19 05:39:00;;;;;;;14.07;9.87;;;2.00;99.90;;;;;;5034445;28;20182;-82
2023/12/19 05:41:26;;;;;;;15.63;9.40;;;2.10;99.90;;;;;;5032981;28;20576;-82
2023/12/19 05:43:56;;;;;;;14.57;9.27;;;2.10;99.90;;;;;;5033918;28;20263;-82
2023/12/19 05:46:21;;;;;;;15.27;9.30;;;2.10;99.90;;;;;;5032392;28;20180;-83
2023/12/19 05:48:47;;;;;;;17.27;9.90;;;2.10;99.90;;;;;;5032499;28;20176;-83
2023/12/19 05:51:13;;;;;;;15.30;9.20;;;2.10;99.90;;;;;;5033494;28;20182;-83
2023/12/19 05:53:39;;;;;;;13.67;9.07;;;2.10;99.90;;;;;;5032879;28;20181;-83
2023/12/19 05:56:05;;;;;;;12.63;8.40;;;2.20;99.90;;;;;;5033996;28;20280;-82
2023/12/19 05:58:31;;;;;;;15.43;9.43;;;2.20;99.90;;;;;;5033525;28;20733;-83
2023/12/19 06:00:57;;;;;;;14.63;9.57;;;2.20;99.90;;;;;;5031969;28;20184;-83
2023/12/19 06:03:23;;;;;;;14.90;8.77;;;2.20;99.90;;;;;;5033308;28;20173;-84
2023/12/19 06:05:49;;;;;;;13.77;9.10;;;2.10;99.90;;;;;;5031994;28;20268;-84
2023/12/19 06:08:17;;;;;;;14.40;9.27;;;2.10;99.90;;;;;;5033093;28;20184;-84
2023/12/19 06:10:42;;;;;;;12.60;8.60;;;2.10;99.90;;;;;;5032173;28;20184;-84
2023/12/19 06:13:08;;;;;;;11.87;9.33;;;2.10;99.90;;;;;;5031210;28;20168;-83
2023/12/19 06:15:34;;;;;;;13.37;9.23;;;2.10;99.90;;;;;;5033308;28;20649;-85
2023/12/19 06:18:00;;;;;;;12.53;8.53;;;2.20;99.90;;;;;;5031881;28;20205;-84
2023/12/19 06:20:25;;;;;;;12.60;8.60;;;2.10;99.90;;;;;;5031672;28;20550;-84
2023/12/19 06:22:51;;;;;;;11.63;8.53;;;2.10;99.90;;;;;;5032963;28;20204;-84
2023/12/19 06:25:17;;;;;;;11.83;8.70;;;2.10;99.90;;;;;;5031538;28;20641;-84
2023/12/19 06:27:44;;;;;;;13.87;9.27;;;2.10;99.90;;;;;;5031756;28;20196;-83
2023/12/19 06:30:10;;;;;;;12.27;8.10;;;2.10;99.90;;;;;;5031528;28;20205;-83
2023/12/19 06:32:40;;;;;;;13.90;8.90;;;2.20;99.90;;;;;;5032840;28;20260;-83
2023/12/19 06:35:08;;;;;;;13.70;8.73;;;2.20;99.90;;;;;;5033137;28;20185;-84
2023/12/19 06:37:34;;;;;;;13.53;8.47;;;2.20;99.90;;;;;;5033263;28;20296;-82
2023/12/19 06:40:00;;;;;;;13.03;8.80;;;2.20;99.90;;;;;;5031730;28;20183;-83
2023/12/19 06:42:25;;;;;;;12.83;8.03;;;2.20;99.90;;;;;;5031633;28;20215;-83
2023/12/19 06:44:51;;;;;;;12.67;8.10;;;2.20;99.90;;;;;;5032732;28;20172;-83
2023/12/19 06:47:17;;;;;;;12.90;8.47;;;2.20;99.90;;;;;;5032056;28;20197;-82
2023/12/19 06:49:43;;;;;;;13.50;8.77;;;2.10;99.90;;;;;;5033009;28;20183;-82
2023/12/19 06:52:09;;;;;;;12.87;8.30;;;2.10;99.90;;;;;;5032093;28;20272;-82
2023/12/19 06:54:38;;;;;;;12.35;8.73;;;2.10;99.90;;;;;;5032675;28;20107;-82
2023/12/19 06:57:04;;;;;;;14.53;8.90;;;2.10;99.90;;;;;;5033503;28;20202;-82
2023/12/19 06:59:33;;;;;;;12.80;8.47;;;2.10;99.90;;;;;;5031978;28;20214;-80
2023/12/19 07:01:58;;;;;;;14.87;8.80;;;2.10;99.90;;;;;;5032263;28;20200;-83
2023/12/19 07:04:24;;;;;;;14.23;9.07;;;2.10;99.90;;;;;;5032492;28;20260;-82
2023/12/19 07:06:49;;;;;;;12.90;8.63;;;2.00;99.90;;;;;;5031864;28;20188;-78
2023/12/19 07:09:15;;;;;;;12.83;8.67;;;1.90;99.90;;;;;;5032515;28;20163;-82
2023/12/19 07:11:41;;;;;;;12.53;8.57;;;1.80;99.90;;;;;;5032754;28;20179;-82
2023/12/19 07:14:07;;;;;;;12.00;8.70;;;1.90;99.90;;;;;;5032757;28;20180;-83
2023/12/19 07:16:33;;;;;;;14.23;10.10;;;1.80;99.90;;;;;;5031026;28;20193;-84
2023/12/19 07:19:00;;;;;;;14.33;9.27;;;1.80;99.90;;;;;;5032638;28;20171;-83
2023/12/19 07:21:26;;;;;;;15.00;10.27;;;1.80;99.90;;;;;;5030993;28;20625;-83
2023/12/19 07:23:53;;;;;;;14.90;9.63;;;1.80;99.90;;;;;;5035322;28;20715;-82
2023/12/19 07:26:23;;;;;;;16.27;10.07;;;1.70;99.90;;;;;;5038980;28;20250;-83
2023/12/19 07:28:50;;;;;;;16.57;9.87;;;1.70;99.90;;;;;;5039076;28;20526;-84
2023/12/19 07:31:27;;;;;;;15.90;10.00;;;1.70;99.90;;;;;;5038745;28;20201;-83
2023/12/19 07:33:56;;;;;;;14.17;9.67;;;1.70;99.90;;;;;;5039056;28;20231;-82
2023/12/19 07:36:23;;;;;;;18.17;10.60;;;1.70;99.90;;;;;;5039033;28;20177;-82
2023/12/19 07:38:49;;;;;;;16.37;10.40;;;1.70;99.90;;;;;;5038696;28;20195;-83
2023/12/19 07:41:15;;;;;;;14.30;9.87;;;1.70;99.90;;;;;;5037621;28;20207;-83
2023/12/19 07:43:41;;;;;;;13.47;9.20;;;1.70;99.90;;;;;;5037660;28;20168;-82
2023/12/19 07:46:06;;;;;;;17.07;10.37;;;1.80;99.90;;;;;;5037565;28;20178;-83
2023/12/19 07:48:32;;;;;;;13.83;9.17;;;1.70;99.90;;;;;;5038779;28;20639;-83
2023/12/19 07:50:59;;;;;;;15.27;10.30;;;1.80;99.90;;;;;;5037396;28;20209;-82
2023/12/19 07:53:28;;;;;;;14.53;9.93;;;1.80;99.90;;;;;;5038797;28;20250;-82
2023/12/19 07:55:55;;;;;;;14.67;9.43;;;1.70;99.90;;;;;;5037563;28;20198;-81
2023/12/19 07:58:21;;;;;;;16.70;10.10;;;1.70;99.90;;;;;;5038925;28;20192;-83
2023/12/19 08:00:48;;;;;;;13.43;9.17;;;1.70;99.90;;;;;;5038806;28;20224;-83
2023/12/19 08:03:15;;;;;;;14.50;9.57;;;1.70;99.90;;;;;;5037689;28;20186;-81
2023/12/19 08:05:50;;;;;;;12.77;8.73;;;1.70;99.90;;;;;;5037436;28;20178;-82
2023/12/19 08:08:19;;;;;;;13.83;8.83;;;1.70;99.90;;;;;;5037559;28;20664;-83
2023/12/19 08:10:45;;;;;;;12.77;8.43;;;1.70;99.90;;;;;;5037438;28;20175;-82
2023/12/19 08:13:11;;;;;;;13.00;7.67;;;1.80;99.90;;;;;;5037351;28;20242;-83
2023/12/19 08:15:37;;;;;;;10.87;7.53;;;1.70;99.90;;;;;;5038775;28;20190;-83
2023/12/19 08:18:03;;;;;;;11.33;7.40;;;1.70;99.90;;;;;;5037327;28;20199;-84
2023/12/19 08:20:28;;;;;;;12.20;7.57;;;1.80;99.90;;;;;;5038042;28;20177;-84
2023/12/19 08:22:54;;;;;;;13.27;8.03;;;1.80;99.90;;;;;;5036963;28;20570;-84
2023/12/19 08:25:20;;;;;;;12.03;8.07;;;1.80;99.90;;;;;;5038185;28;20168;-84
2023/12/19 08:27:46;;;;;;;13.27;8.83;;;1.80;99.90;;;;;;5036763;28;20203;-84
2023/12/19 08:30:12;;;;;;;14.40;9.60;;;1.80;99.90;;;;;;5038052;28;20173;-84
2023/12/19 08:32:38;;;;;;;14.23;9.20;;;1.70;99.90;;;;;;5037200;28;20183;-83
2023/12/19 08:35:05;;;;;;;14.90;8.93;;;1.70;99.90;;;;;;5036702;28;20624;-82
2023/12/19 08:37:31;;;;;;;15.63;9.37;;;1.70;99.90;;;;;;5059173;22;20219;-84
2023/12/19 08:39:58;;;;;;;13.50;9.13;;;1.60;99.90;;;;;;5033276;28;20734;-84
2023/12/19 08:42:23;;;;;;;14.57;9.07;;;1.70;99.90;;;;;;5034897;28;20254;-85
2023/12/19 08:44:53;;;;;;;14.57;8.50;;;1.70;99.90;;;;;;5034915;28;20197;-84
2023/12/19 08:47:18;;;;;;;14.03;8.77;;;1.70;99.90;;;;;;5034736;28;20167;-84
2023/12/19 08:49:44;;;;;;;12.67;8.27;;;1.70;99.90;;;;;;5034768;28;20182;-82
2023/12/19 08:52:10;;;;;;;14.33;8.87;;;1.80;99.90;;;;;;5034918;28;20232;-83
2023/12/19 08:54:36;;;;;;;14.60;9.00;;;1.80;99.90;;;;;;5033472;28;20266;-84
2023/12/19 08:57:02;;;;;;;17.27;9.93;;;1.80;99.90;;;;;;5034720;28;20208;-85
2023/12/19 08:59:28;;;;;;;34.23;19.00;;;1.80;99.90;;;;;;5033474;28;20173;-84
2023/12/19 09:01:55;;;;;;;16.20;11.03;;;1.80;99.90;;;;;;5033600;28;20585;-83
2023/12/19 09:04:21;;;;;;;16.10;9.70;;;1.80;99.90;;;;;;5034628;28;20171;-86
2023/12/19 09:06:50;;;;;;;12.93;8.83;;;1.80;99.90;;;;;;5034768;28;20263;-85
2023/12/19 09:09:16;;;;;;;14.57;8.77;;;1.80;99.90;;;;;;5033119;28;20281;-84
2023/12/19 09:11:42;;;;;;;13.50;8.30;;;1.80;99.90;;;;;;5033159;28;20203;-84
2023/12/19 09:14:08;;;;;;;11.60;7.30;;;1.80;99.90;;;;;;5034524;28;20207;-83
2023/12/19 09:16:34;;;;;;;12.27;8.67;;;1.70;99.90;;;;;;5033027;28;20176;-82
2023/12/19 09:19:00;;;;;;;11.37;7.77;;;1.70;99.90;;;;;;5032751;28;20252;-83
2023/12/19 09:21:26;;;;;;;12.00;7.50;;;1.70;99.90;;;;;;5034097;28;20593;-84
2023/12/19 09:23:52;;;;;;;12.30;7.83;;;1.60;99.90;;;;;;5034216;28;20176;-84
2023/12/19 09:26:18;;;;;;;14.40;8.87;;;1.60;99.90;;;;;;5032797;28;20559;-82
2023/12/19 09:28:44;;;;;;;12.07;8.17;;;1.60;99.90;;;;;;5033943;28;20198;-84
2023/12/19 09:31:10;;;;;;;11.73;7.97;;;1.60;99.90;;;;;;5032410;28;20183;-84
2023/12/19 09:33:39;;;;;;;12.60;7.57;;;1.70;99.90;;;;;;5034134;28;20182;-84
2023/12/19 09:36:07;;;;;;;11.70;7.47;;;1.70;99.90;;;;;;5032848;28;20188;-84
2023/12/19 09:38:32;;;;;;;10.43;7.13;;;1.70;99.90;;;;;;5032764;28;20226;-84
2023/12/19 09:40:58;;;;;;;11.47;7.10;;;1.80;99.90;;;;;;5033765;28;20184;-84
2023/12/19 09:43:23;;;;;;;9.83;6.70;;;1.80;99.90;;;;;;5034055;28;20179;-85
2023/12/19 09:45:50;;;;;;;7.50;5.57;;;1.70;99.90;;;;;;5032569;28;20199;-85
2023/12/19 09:48:15;;;;;;;8.47;6.00;;;1.70;99.90;;;;;;5032735;28;20193;-85
2023/12/19 09:50:43;;;;;;;8.37;5.70;;;1.80;99.90;;;;;;5032242;28;20619;-85
2023/12/19 09:53:10;;;;;;;8.60;5.30;;;1.80;99.90;;;;;;5034041;28;20181;-85
2023/12/19 09:55:42;;;;;;;7.20;5.20;;;1.80;99.90;;;;;;5032351;28;20181;-84
2023/12/19 09:58:09;;;;;;;6.63;4.40;;;1.90;99.90;;;;;;5032638;28;20192;-85
2023/12/19 10:00:38;;;;;;;7.87;4.50;;;1.90;99.90;;;;;;5032009;28;20183;-84
2023/12/19 10:03:04;;;;;;;6.50;4.77;;;1.90;99.90;;;;;;5034016;28;20203;-85
2023/12/19 10:05:29;;;;;;;5.77;4.60;;;1.90;99.90;;;;;;5033767;28;20171;-84
2023/12/19 10:07:58;;;;;;;6.90;4.70;;;1.80;99.90;;;;;;5033712;28;20211;-85
2023/12/19 10:10:53;;;;;;;7.37;5.10;;;1.70;99.90;;;;;;5032120;28;20177;-86
2023/12/19 10:13:29;;;;;;;7.97;4.90;;;1.70;99.90;;;;;;5032140;28;20181;-85
2023/12/19 10:16:18;;;;;;;7.70;5.07;;;1.70;99.90;;;;;;5033214;28;20653;-84
2023/12/19 10:18:52;;;;;;;10.83;8.17;;;1.60;99.90;;;;;;5033109;28;20258;-85
2023/12/19 10:21:21;;;;;;;10.50;7.13;;;1.60;99.90;;;;;;5031607;28;20748;-84
2023/12/19 10:23:46;;;;;;;12.53;7.27;;;1.60;99.90;;;;;;5033308;28;20236;-84
2023/12/19 10:26:12;;;;;;;11.23;7.67;;;1.60;99.90;;;;;;5031926;28;20624;-85
2023/12/19 10:28:38;;;;;;;11.60;7.30;;;1.60;99.90;;;;;;5031494;28;20191;-83
2023/12/19 10:31:15;;;;;;;14.60;8.40;;;1.50;99.90;;;;;;5031477;28;20183;-82
2023/12/19 10:33:49;;;;;;;16.50;10.53;;;1.50;99.90;;;;;;5031858;28;20719;-84
2023/12/19 10:36:30;;;;;;;15.97;9.00;;;1.60;99.90;;;;;;5031874;28;20179;-84
2023/12/19 10:39:01;;;;;;;15.27;9.23;;;1.60;99.90;;;;;;5032647;28;20211;-84
2023/12/19 10:41:31;;;;;;;14.50;8.13;;;1.60;99.90;;;;;;5032692;28;20194;-83
2023/12/19 10:43:58;;;;;;;13.93;8.83;;;1.60;99.90;;;;;;5031256;28;20173;-84
2023/12/19 10:46:29;;;;;;;14.43;8.03;;;1.60;99.90;;;;;;5032642;28;20174;-83
2023/12/19 10:49:02;;;;;;;12.87;7.83;;;1.60;99.90;;;;;;5032643;28;20197;-83
2023/12/19 10:51:35;;;;;;;13.87;8.60;;;1.60;99.90;;;;;;5031696;28;20200;-82
2023/12/19 10:54:15;;;;;;;16.13;8.20;;;1.60;99.90;;;;;;5034729;28;20557;-84
2023/12/19 10:56:53;;;;;;;13.40;8.17;;;1.50;99.90;;;;;;5033248;28;20249;-84
2023/12/19 10:59:58;;;;;;;13.57;8.20;;;1.60;99.90;;;;;;5031119;28;20208;-85
2023/12/19 11:02:48;;;;;;;14.83;8.53;;;1.60;99.90;;;;;;5026016;28;20757;-85
2023/12/19 11:05:46;;;;;;;14.57;8.40;;;1.60;99.90;;;;;;5032332;28;20598;-84
2023/12/19 11:08:17;;;;;;;11.67;6.60;;;1.60;99.90;;;;;;5031164;28;20195;-84
2023/12/19 11:11:13;;;;;;;14.20;7.97;;;1.70;99.90;;;;;;5030884;28;20167;-83
2023/12/19 11:13:42;;;;;;;15.10;8.90;;;1.70;99.90;;;;;;5031038;28;20635;-82
2023/12/19 11:16:15;;;;;;;13.27;7.93;;;1.70;99.90;;;;;;5031283;28;20171;-85
2023/12/19 11:18:53;;;;;;;15.30;8.53;;;1.70;99.90;;;;;;5032115;28;20190;-81
2023/12/19 11:21:29;;;;;;;16.07;8.90;;;1.80;99.90;;;;;;5030805;28;20308;-83
2023/12/19 11:24:07;;;;;;;16.40;9.43;;;1.70;99.90;;;;;;5032233;28;20661;-83
2023/12/19 11:26:55;;;;;;;14.80;8.47;;;1.70;99.90;;;;;;5030820;28;20175;-84
2023/12/19 11:29:43;;;;;;;15.67;9.40;;;1.70;99.90;;;;;;5031927;28;20195;-83
2023/12/19 11:32:27;;;;;;;15.23;9.13;;;1.80;99.90;;;;;;5032005;28;20692;-83
2023/12/19 11:34:53;;;;;;;15.20;8.90;;;1.60;99.90;;;;;;5030937;28;20681;-83
2023/12/19 11:37:22;;;;;;;17.83;9.67;;;1.60;99.90;;;;;;5030679;28;20312;-83
2023/12/19 11:39:48;;;;;;;17.07;9.90;;;1.60;99.90;;;;;;5030588;28;20193;-84
2023/12/19 11:42:35;;;;;;;17.17;10.13;;;1.60;99.90;;;;;;5031664;28;20202;-83
2023/12/19 11:45:21;;;;;;;16.57;9.60;;;1.60;99.90;;;;;;5032267;28;20171;-83
2023/12/19 11:47:47;;;;;;;17.10;10.10;;;1.70;99.90;;;;;;5030686;28;20192;-83
2023/12/19 11:50:39;;;;;;;17.80;9.73;;;1.60;99.90;;;;;;5031009;28;20560;-82
2023/12/19 11:53:08;;;;;;;17.93;10.03;;;1.60;99.90;;;;;;5030779;28;20229;-82
2023/12/19 11:55:34;;;;;;;20.10;9.97;;;1.60;99.90;;;;;;5030688;28;20188;-82
2023/12/19 11:58:09;;;;;;;17.33;9.90;;;1.50;99.90;;;;;;5031858;28;20192;-83
2023/12/19 12:00:35;;;;;;;22.17;10.43;;;1.40;99.90;;;;;;5031622;28;20795;-83
2023/12/19 12:03:08;;;;;;;19.70;10.70;;;1.50;99.90;;;;;;5030583;28;20282;-83
2023/12/19 12:05:34;;;;;;;20.17;10.93;;;1.40;99.90;;;;;;5031638;28;20321;-82
2023/12/19 12:07:59;;;;;;;16.30;9.43;;;1.40;99.90;;;;;;5031779;28;20742;-83
2023/12/19 12:10:26;;;;;;;19.60;10.20;;;1.40;99.90;;;;;;5032357;28;20173;-82
2023/12/19 12:12:53;;;;;;;18.13;10.17;;;1.30;99.90;;;;;;5035400;28;20205;-82
2023/12/19 12:15:23;;;;;;;17.40;10.03;;;1.30;99.90;;;;;;5034106;28;20175;-82
2023/12/19 12:17:50;;;;;;;19.10;9.37;;;1.30;99.90;;;;;;5035646;28;20194;-83
2023/12/19 12:20:22;;;;;;;19.93;10.63;;;1.30;99.90;;;;;;5034990;28;20261;-83
2023/12/19 12:22:48;;;;;;;19.60;10.60;;;1.30;99.90;;;;;;5034088;28;20202;-82
2023/12/19 12:25:15;;;;;;;19.60;10.03;;;1.30;99.90;;;;;;5034061;28;20189;-82
2023/12/19 12:27:41;;;;;;;19.30;10.17;;;1.30;99.90;;;;;;5033770;28;20213;-82
2023/12/19 12:30:11;;;;;;;22.83;11.07;;;1.30;99.90;;;;;;5033804;28;20601;-82
2023/12/19 12:32:38;;;;;;;19.97;10.23;;;1.30;99.90;;;;;;5033469;28;20185;-82
2023/12/19 12:35:28;;;;;;;19.70;10.83;;;1.30;99.90;;;;;;5035192;28;20175;-80
2023/12/19 12:38:06;;;;;;;18.77;10.50;;;1.40;99.90;;;;;;5033687;28;20237;-82
2023/12/19 12:40:33;;;;;;;20.53;10.30;;;1.40;99.90;;;;;;5033520;28;20181;-82
2023/12/19 12:43:39;;;;;;;19.00;10.73;;;1.40;99.90;;;;;;5033448;28;20285;-81
2023/12/19 12:46:12;;;;;;;19.90;9.83;;;1.40;99.90;;;;;;5034181;28;20265;-81
2023/12/19 12:48:46;;;;;;;19.00;10.30;;;1.40;99.90;;;;;;5034767;28;20272;-82